sensor_id;sensor_type;location;lat;lon;timestamp;P1;durP1;ratioP1;P2;durP2;ratioP2
64543;SDS011;50936;51.660;5.616;2023-12-04T00:02:00;5.40;;;2.72;;
64543;SDS011;50936;51.660;5.616;2023-12-04T00:04:47;5.40;;;2.70;;
64543;SDS011;50936;51.660;5.616;2023-12-04T00:07:35;5.47;;;3.13;;
64543;SDS011;50936;51.660;5.616;2023-12-04T00:10:22;4.80;;;2.58;;
64543;SDS011;50936;51.660;5.616;2023-12-04T00:13:09;4.43;;;2.47;;
64543;SDS011;50936;51.660;5.616;2023-12-04T00:15:56;3.83;;;2.15;;
64543;SDS011;50936;51.660;5.616;2023-12-04T00:18:43;4.90;;;2.60;;
64543;SDS011;50936;51.660;5.616;2023-12-04T00:21:31;4.30;;;2.60;;
64543;SDS011;50936;51.660;5.616;2023-12-04T00:24:18;4.35;;;2.55;;
64543;SDS011;50936;51.660;5.616;2023-12-04T00:27:05;4.88;;;2.90;;
64543;SDS011;50936;51.660;5.616;2023-12-04T00:29:53;4.55;;;2.83;;
64543;SDS011;50936;51.660;5.616;2023-12-04T00:32:40;4.40;;;2.50;;
64543;SDS011;50936;51.660;5.616;2023-12-04T00:35:27;4.00;;;2.60;;
64543;SDS011;50936;51.660;5.616;2023-12-04T00:38:15;4.38;;;2.20;;
64543;SDS011;50936;51.660;5.616;2023-12-04T00:41:02;3.90;;;2.30;;
64543;SDS011;50936;51.660;5.616;2023-12-04T00:43:50;4.72;;;2.70;;
64543;SDS011;50936;51.660;5.616;2023-12-04T00:46:37;5.13;;;2.50;;
64543;SDS011;50936;51.660;5.616;2023-12-04T00:49:24;3.70;;;2.30;;
64543;SDS011;50936;51.660;5.616;2023-12-04T00:52:11;3.60;;;2.50;;
64543;SDS011;50936;51.660;5.616;2023-12-04T00:54:59;5.18;;;2.70;;
64543;SDS011;50936;51.660;5.616;2023-12-04T00:57:46;4.22;;;2.45;;
64543;SDS011;50936;51.660;5.616;2023-12-04T01:00:33;4.18;;;2.42;;
64543;SDS011;50936;51.660;5.616;2023-12-04T01:03:20;3.58;;;2.45;;
64543;SDS011;50936;51.660;5.616;2023-12-04T01:06:08;4.95;;;2.35;;
64543;SDS011;50936;51.660;5.616;2023-12-04T01:09:06;4.50;;;2.67;;
64543;SDS011;50936;51.660;5.616;2023-12-04T01:11:54;5.22;;;2.78;;
64543;SDS011;50936;51.660;5.616;2023-12-04T01:14:41;3.90;;;2.47;;
64543;SDS011;50936;51.660;5.616;2023-12-04T01:17:28;4.32;;;2.50;;
64543;SDS011;50936;51.660;5.616;2023-12-04T01:20:15;4.55;;;2.45;;
64543;SDS011;50936;51.660;5.616;2023-12-04T01:23:03;5.10;;;3.00;;
64543;SDS011;50936;51.660;5.616;2023-12-04T01:25:50;3.60;;;2.25;;
64543;SDS011;50936;51.660;5.616;2023-12-04T01:28:37;3.70;;;2.35;;
64543;SDS011;50936;51.660;5.616;2023-12-04T01:31:24;3.58;;;2.45;;
64543;SDS011;50936;51.660;5.616;2023-12-04T01:34:11;4.53;;;2.63;;
64543;SDS011;50936;51.660;5.616;2023-12-04T01:36:59;3.88;;;2.13;;
64543;SDS011;50936;51.660;5.616;2023-12-04T01:39:46;4.55;;;2.47;;
64543;SDS011;50936;51.660;5.616;2023-12-04T01:42:33;4.15;;;2.60;;
64543;SDS011;50936;51.660;5.616;2023-12-04T01:45:20;3.90;;;2.50;;
64543;SDS011;50936;51.660;5.616;2023-12-04T01:48:07;4.13;;;2.58;;
64543;SDS011;50936;51.660;5.616;2023-12-04T01:50:56;4.15;;;2.58;;
64543;SDS011;50936;51.660;5.616;2023-12-04T01:56:34;3.30;;;2.15;;
64543;SDS011;50936;51.660;5.616;2023-12-04T01:59:24;4.65;;;2.70;;
64543;SDS011;50936;51.660;5.616;2023-12-04T02:02:13;4.85;;;2.80;;
64543;SDS011;50936;51.660;5.616;2023-12-04T02:05:00;4.05;;;2.53;;
64543;SDS011;50936;51.660;5.616;2023-12-04T02:07:49;3.67;;;2.22;;
64543;SDS011;50936;51.660;5.616;2023-12-04T02:10:37;3.75;;;2.15;;
64543;SDS011;50936;51.660;5.616;2023-12-04T02:13:25;3.97;;;2.40;;
64543;SDS011;50936;51.660;5.616;2023-12-04T02:16:13;4.45;;;2.58;;
64543;SDS011;50936;51.660;5.616;2023-12-04T02:19:07;4.32;;;2.63;;
64543;SDS011;50936;51.660;5.616;2023-12-04T02:21:55;4.03;;;2.50;;
64543;SDS011;50936;51.660;5.616;2023-12-04T02:24:42;4.53;;;2.75;;
64543;SDS011;50936;51.660;5.616;2023-12-04T02:30:36;4.28;;;2.67;;
64543;SDS011;50936;51.660;5.616;2023-12-04T02:33:24;3.78;;;2.38;;
64543;SDS011;50936;51.660;5.616;2023-12-04T02:36:14;4.03;;;2.63;;
64543;SDS011;50936;51.660;5.616;2023-12-04T02:39:02;5.30;;;2.50;;
64543;SDS011;50936;51.660;5.616;2023-12-04T02:41:51;4.25;;;2.45;;
64543;SDS011;50936;51.660;5.616;2023-12-04T02:44:38;4.07;;;2.50;;
64543;SDS011;50936;51.660;5.616;2023-12-04T02:47:25;3.55;;;2.40;;
64543;SDS011;50936;51.660;5.616;2023-12-04T02:50:13;3.65;;;2.42;;
64543;SDS011;50936;51.660;5.616;2023-12-04T02:53:00;5.20;;;2.50;;
64543;SDS011;50936;51.660;5.616;2023-12-04T02:55:47;4.95;;;2.78;;
64543;SDS011;50936;51.660;5.616;2023-12-04T02:58:34;4.03;;;2.50;;
64543;SDS011;50936;51.660;5.616;2023-12-04T03:01:21;4.18;;;2.50;;
64543;SDS011;50936;51.660;5.616;2023-12-04T03:04:09;4.65;;;2.90;;
64543;SDS011;50936;51.660;5.616;2023-12-04T03:06:56;4.50;;;2.40;;
64543;SDS011;50936;51.660;5.616;2023-12-04T03:09:43;3.90;;;2.40;;
64543;SDS011;50936;51.660;5.616;2023-12-04T03:12:35;3.83;;;2.53;;
64543;SDS011;50936;51.660;5.616;2023-12-04T03:15:22;4.32;;;2.75;;
64543;SDS011;50936;51.660;5.616;2023-12-04T03:18:09;4.05;;;2.22;;
64543;SDS011;50936;51.660;5.616;2023-12-04T03:20:58;3.55;;;2.50;;
64543;SDS011;50936;51.660;5.616;2023-12-04T03:23:45;3.65;;;2.47;;
64543;SDS011;50936;51.660;5.616;2023-12-04T03:26:33;3.47;;;2.35;;
64543;SDS011;50936;51.660;5.616;2023-12-04T03:29:20;3.88;;;2.45;;
64543;SDS011;50936;51.660;5.616;2023-12-04T03:32:07;4.18;;;2.25;;
64543;SDS011;50936;51.660;5.616;2023-12-04T03:34:54;4.05;;;2.50;;
64543;SDS011;50936;51.660;5.616;2023-12-04T03:37:41;3.70;;;2.38;;
64543;SDS011;50936;51.660;5.616;2023-12-04T03:40:28;4.13;;;2.60;;
64543;SDS011;50936;51.660;5.616;2023-12-04T03:43:16;5.13;;;2.55;;
64543;SDS011;50936;51.660;5.616;2023-12-04T03:46:03;3.85;;;2.50;;
64543;SDS011;50936;51.660;5.616;2023-12-04T03:48:51;4.43;;;2.58;;
64543;SDS011;50936;51.660;5.616;2023-12-04T03:51:38;5.35;;;2.53;;
64543;SDS011;50936;51.660;5.616;2023-12-04T03:54:25;3.97;;;2.40;;
64543;SDS011;50936;51.660;5.616;2023-12-04T03:57:13;4.03;;;2.50;;
64543;SDS011;50936;51.660;5.616;2023-12-04T04:00:00;3.97;;;2.60;;
64543;SDS011;50936;51.660;5.616;2023-12-04T04:02:57;4.13;;;2.38;;
64543;SDS011;50936;51.660;5.616;2023-12-04T04:05:44;3.28;;;2.10;;
64543;SDS011;50936;51.660;5.616;2023-12-04T04:08:31;3.95;;;2.58;;
64543;SDS011;50936;51.660;5.616;2023-12-04T04:11:18;3.40;;;2.05;;
64543;SDS011;50936;51.660;5.616;2023-12-04T04:14:05;4.25;;;2.45;;
64543;SDS011;50936;51.660;5.616;2023-12-04T04:16:53;4.60;;;2.42;;
64543;SDS011;50936;51.660;5.616;2023-12-04T04:19:40;3.80;;;2.30;;
64543;SDS011;50936;51.660;5.616;2023-12-04T04:22:28;3.85;;;2.25;;
64543;SDS011;50936;51.660;5.616;2023-12-04T04:25:16;4.80;;;2.58;;
64543;SDS011;50936;51.660;5.616;2023-12-04T04:28:03;4.53;;;2.50;;
64543;SDS011;50936;51.660;5.616;2023-12-04T04:30:50;4.05;;;2.53;;
64543;SDS011;50936;51.660;5.616;2023-12-04T04:33:37;3.40;;;1.98;;
64543;SDS011;50936;51.660;5.616;2023-12-04T04:36:25;3.63;;;2.35;;
64543;SDS011;50936;51.660;5.616;2023-12-04T04:39:12;3.67;;;2.40;;
64543;SDS011;50936;51.660;5.616;2023-12-04T04:42:00;3.97;;;2.58;;
64543;SDS011;50936;51.660;5.616;2023-12-04T04:44:47;4.25;;;2.70;;
64543;SDS011;50936;51.660;5.616;2023-12-04T04:47:35;4.20;;;2.30;;
64543;SDS011;50936;51.660;5.616;2023-12-04T04:50:22;3.63;;;2.40;;
64543;SDS011;50936;51.660;5.616;2023-12-04T04:53:09;3.50;;;2.35;;
64543;SDS011;50936;51.660;5.616;2023-12-04T04:55:56;3.92;;;2.13;;
64543;SDS011;50936;51.660;5.616;2023-12-04T04:58:44;3.47;;;2.20;;
64543;SDS011;50936;51.660;5.616;2023-12-04T05:01:38;3.95;;;2.40;;
64543;SDS011;50936;51.660;5.616;2023-12-04T05:04:25;3.28;;;1.92;;
64543;SDS011;50936;51.660;5.616;2023-12-04T05:07:13;4.05;;;2.38;;
64543;SDS011;50936;51.660;5.616;2023-12-04T05:10:01;3.45;;;2.17;;
64543;SDS011;50936;51.660;5.616;2023-12-04T05:12:52;3.95;;;2.30;;
64543;SDS011;50936;51.660;5.616;2023-12-04T05:15:39;3.30;;;2.22;;
64543;SDS011;50936;51.660;5.616;2023-12-04T05:18:26;3.58;;;2.17;;
64543;SDS011;50936;51.660;5.616;2023-12-04T05:21:13;3.35;;;1.98;;
64543;SDS011;50936;51.660;5.616;2023-12-04T05:24:01;3.80;;;2.40;;
64543;SDS011;50936;51.660;5.616;2023-12-04T05:26:48;3.00;;;1.80;;
64543;SDS011;50936;51.660;5.616;2023-12-04T05:29:35;3.35;;;2.20;;
64543;SDS011;50936;51.660;5.616;2023-12-04T05:32:22;3.35;;;2.30;;
64543;SDS011;50936;51.660;5.616;2023-12-04T05:35:09;3.53;;;2.10;;
64543;SDS011;50936;51.660;5.616;2023-12-04T05:37:56;3.60;;;2.13;;
64543;SDS011;50936;51.660;5.616;2023-12-04T05:40:43;3.70;;;2.20;;
64543;SDS011;50936;51.660;5.616;2023-12-04T05:43:31;3.83;;;2.22;;
64543;SDS011;50936;51.660;5.616;2023-12-04T05:46:18;3.97;;;2.38;;
64543;SDS011;50936;51.660;5.616;2023-12-04T05:49:05;2.95;;;2.00;;
64543;SDS011;50936;51.660;5.616;2023-12-04T05:51:53;3.08;;;1.90;;
64543;SDS011;50936;51.660;5.616;2023-12-04T05:54:40;3.30;;;2.00;;
64543;SDS011;50936;51.660;5.616;2023-12-04T05:57:27;3.40;;;2.10;;
64543;SDS011;50936;51.660;5.616;2023-12-04T06:00:14;3.65;;;1.85;;
64543;SDS011;50936;51.660;5.616;2023-12-04T06:03:02;4.43;;;1.88;;
64543;SDS011;50936;51.660;5.616;2023-12-04T06:05:49;3.55;;;1.98;;
64543;SDS011;50936;51.660;5.616;2023-12-04T06:08:38;4.47;;;1.95;;
64543;SDS011;50936;51.660;5.616;2023-12-04T06:11:26;2.97;;;1.77;;
64543;SDS011;50936;51.660;5.616;2023-12-04T06:14:13;2.95;;;1.80;;
64543;SDS011;50936;51.660;5.616;2023-12-04T06:17:00;3.05;;;1.88;;
64543;SDS011;50936;51.660;5.616;2023-12-04T06:19:48;2.90;;;1.83;;
64543;SDS011;50936;51.660;5.616;2023-12-04T06:22:35;3.58;;;2.10;;
64543;SDS011;50936;51.660;5.616;2023-12-04T06:25:23;3.20;;;1.90;;
64543;SDS011;50936;51.660;5.616;2023-12-04T06:28:10;3.70;;;2.20;;
64543;SDS011;50936;51.660;5.616;2023-12-04T06:30:59;2.88;;;1.80;;
64543;SDS011;50936;51.660;5.616;2023-12-04T06:33:47;2.90;;;1.80;;
64543;SDS011;50936;51.660;5.616;2023-12-04T06:36:37;3.08;;;1.70;;
64543;SDS011;50936;51.660;5.616;2023-12-04T06:39:29;2.63;;;1.67;;
64543;SDS011;50936;51.660;5.616;2023-12-04T06:42:20;2.67;;;1.73;;
64543;SDS011;50936;51.660;5.616;2023-12-04T06:45:08;3.90;;;1.80;;
64543;SDS011;50936;51.660;5.616;2023-12-04T06:47:56;2.75;;;1.80;;
64543;SDS011;50936;51.660;5.616;2023-12-04T06:50:44;2.80;;;1.63;;
64543;SDS011;50936;51.660;5.616;2023-12-04T06:53:31;4.03;;;1.90;;
64543;SDS011;50936;51.660;5.616;2023-12-04T06:56:18;4.22;;;1.80;;
64543;SDS011;50936;51.660;5.616;2023-12-04T06:59:06;4.38;;;1.73;;
64543;SDS011;50936;51.660;5.616;2023-12-04T07:01:54;2.33;;;1.70;;
64543;SDS011;50936;51.660;5.616;2023-12-04T07:04:41;4.47;;;1.90;;
64543;SDS011;50936;51.660;5.616;2023-12-04T07:07:28;2.47;;;1.70;;
64543;SDS011;50936;51.660;5.616;2023-12-04T07:10:15;2.75;;;1.92;;
64543;SDS011;50936;51.660;5.616;2023-12-04T07:13:03;3.00;;;1.88;;
64543;SDS011;50936;51.660;5.616;2023-12-04T07:15:51;3.22;;;1.63;;
64543;SDS011;50936;51.660;5.616;2023-12-04T07:18:38;2.30;;;1.48;;
64543;SDS011;50936;51.660;5.616;2023-12-04T07:21:25;6.28;;;2.08;;
64543;SDS011;50936;51.660;5.616;2023-12-04T07:24:12;3.78;;;2.05;;
64543;SDS011;50936;51.660;5.616;2023-12-04T07:27:00;2.45;;;1.67;;
64543;SDS011;50936;51.660;5.616;2023-12-04T07:29:47;3.42;;;1.77;;
64543;SDS011;50936;51.660;5.616;2023-12-04T07:32:34;3.17;;;1.85;;
64543;SDS011;50936;51.660;5.616;2023-12-04T07:35:22;4.40;;;1.67;;
64543;SDS011;50936;51.660;5.616;2023-12-04T07:38:09;2.42;;;1.65;;
64543;SDS011;50936;51.660;5.616;2023-12-04T07:40:56;5.47;;;1.77;;
64543;SDS011;50936;51.660;5.616;2023-12-04T07:43:45;3.63;;;1.80;;
64543;SDS011;50936;51.660;5.616;2023-12-04T07:46:32;3.70;;;1.65;;
64543;SDS011;50936;51.660;5.616;2023-12-04T07:49:20;3.55;;;1.77;;
64543;SDS011;50936;51.660;5.616;2023-12-04T07:52:07;3.53;;;1.90;;
64543;SDS011;50936;51.660;5.616;2023-12-04T07:54:55;4.82;;;1.63;;
64543;SDS011;50936;51.660;5.616;2023-12-04T07:57:43;3.50;;;1.90;;
64543;SDS011;50936;51.660;5.616;2023-12-04T08:00:30;3.65;;;1.77;;
64543;SDS011;50936;51.660;5.616;2023-12-04T08:03:17;5.75;;;1.92;;
64543;SDS011;50936;51.660;5.616;2023-12-04T08:06:05;4.03;;;2.00;;
64543;SDS011;50936;51.660;5.616;2023-12-04T08:08:52;2.78;;;1.55;;
64543;SDS011;50936;51.660;5.616;2023-12-04T08:11:41;5.38;;;1.77;;
64543;SDS011;50936;51.660;5.616;2023-12-04T08:14:28;3.67;;;1.88;;
64543;SDS011;50936;51.660;5.616;2023-12-04T08:17:15;6.00;;;1.83;;
64543;SDS011;50936;51.660;5.616;2023-12-04T08:20:03;4.28;;;1.75;;
64543;SDS011;50936;51.660;5.616;2023-12-04T08:22:51;3.35;;;2.30;;
64543;SDS011;50936;51.660;5.616;2023-12-04T08:25:38;5.35;;;2.08;;
64543;SDS011;50936;51.660;5.616;2023-12-04T08:28:26;5.10;;;2.35;;
64543;SDS011;50936;51.660;5.616;2023-12-04T08:31:13;3.75;;;1.73;;
64543;SDS011;50936;51.660;5.616;2023-12-04T08:34:01;4.22;;;2.22;;
64543;SDS011;50936;51.660;5.616;2023-12-04T08:36:48;4.32;;;2.20;;
64543;SDS011;50936;51.660;5.616;2023-12-04T08:39:35;5.72;;;2.55;;
64543;SDS011;50936;51.660;5.616;2023-12-04T08:42:22;6.07;;;2.80;;
64543;SDS011;50936;51.660;5.616;2023-12-04T08:45:10;7.72;;;3.17;;
64543;SDS011;50936;51.660;5.616;2023-12-04T08:47:58;10.13;;;3.42;;
64543;SDS011;50936;51.660;5.616;2023-12-04T08:50:45;10.00;;;3.50;;
64543;SDS011;50936;51.660;5.616;2023-12-04T08:53:32;10.45;;;3.67;;
64543;SDS011;50936;51.660;5.616;2023-12-04T08:56:19;10.43;;;3.80;;
64543;SDS011;50936;51.660;5.616;2023-12-04T08:59:16;12.95;;;4.15;;
64543;SDS011;50936;51.660;5.616;2023-12-04T09:02:04;10.75;;;3.75;;
64543;SDS011;50936;51.660;5.616;2023-12-04T09:04:51;13.35;;;3.97;;
64543;SDS011;50936;51.660;5.616;2023-12-04T09:07:39;10.57;;;4.05;;
64543;SDS011;50936;51.660;5.616;2023-12-04T09:10:46;10.07;;;3.55;;
64543;SDS011;50936;51.660;5.616;2023-12-04T09:13:54;10.27;;;3.83;;
64543;SDS011;50936;51.660;5.616;2023-12-04T09:16:41;11.30;;;4.05;;
64543;SDS011;50936;51.660;5.616;2023-12-04T09:19:29;11.25;;;3.95;;
64543;SDS011;50936;51.660;5.616;2023-12-04T09:22:17;10.95;;;4.18;;
64543;SDS011;50936;51.660;5.616;2023-12-04T09:25:07;16.38;;;5.05;;
64543;SDS011;50936;51.660;5.616;2023-12-04T09:27:57;21.75;;;5.13;;
64543;SDS011;50936;51.660;5.616;2023-12-04T09:30:44;13.65;;;4.75;;
64543;SDS011;50936;51.660;5.616;2023-12-04T09:33:32;16.42;;;5.20;;
64543;SDS011;50936;51.660;5.616;2023-12-04T09:36:19;13.65;;;4.45;;
64543;SDS011;50936;51.660;5.616;2023-12-04T09:39:06;12.93;;;4.40;;
64543;SDS011;50936;51.660;5.616;2023-12-04T09:41:54;14.55;;;4.60;;
64543;SDS011;50936;51.660;5.616;2023-12-04T09:44:42;14.98;;;4.88;;
64543;SDS011;50936;51.660;5.616;2023-12-04T09:47:30;16.17;;;5.70;;
64543;SDS011;50936;51.660;5.616;2023-12-04T09:53:12;15.23;;;4.22;;
64543;SDS011;50936;51.660;5.616;2023-12-04T09:56:00;14.35;;;4.70;;
64543;SDS011;50936;51.660;5.616;2023-12-04T10:01:46;14.70;;;4.57;;
64543;SDS011;50936;51.660;5.616;2023-12-04T10:04:34;11.65;;;4.55;;
64543;SDS011;50936;51.660;5.616;2023-12-04T10:07:22;12.75;;;4.82;;
64543;SDS011;50936;51.660;5.616;2023-12-04T10:10:09;15.10;;;4.30;;
64543;SDS011;50936;51.660;5.616;2023-12-04T10:12:57;11.20;;;4.10;;
64543;SDS011;50936;51.660;5.616;2023-12-04T10:15:48;13.23;;;4.80;;
64543;SDS011;50936;51.660;5.616;2023-12-04T10:18:38;12.57;;;4.80;;
64543;SDS011;50936;51.660;5.616;2023-12-04T10:21:31;16.08;;;5.10;;
64543;SDS011;50936;51.660;5.616;2023-12-04T10:24:35;14.70;;;4.70;;
64543;SDS011;50936;51.660;5.616;2023-12-04T10:27:26;13.32;;;4.80;;
64543;SDS011;50936;51.660;5.616;2023-12-04T10:30:23;11.38;;;4.80;;
64543;SDS011;50936;51.660;5.616;2023-12-04T10:33:14;12.65;;;4.60;;
64543;SDS011;50936;51.660;5.616;2023-12-04T10:36:02;10.80;;;5.00;;
64543;SDS011;50936;51.660;5.616;2023-12-04T10:39:00;14.43;;;4.45;;
64543;SDS011;50936;51.660;5.616;2023-12-04T10:41:54;15.70;;;4.95;;
64543;SDS011;50936;51.660;5.616;2023-12-04T10:44:50;13.05;;;4.72;;
64543;SDS011;50936;51.660;5.616;2023-12-04T10:47:37;13.60;;;4.68;;
64543;SDS011;50936;51.660;5.616;2023-12-04T10:50:26;13.07;;;4.63;;
64543;SDS011;50936;51.660;5.616;2023-12-04T10:53:15;16.85;;;5.40;;
64543;SDS011;50936;51.660;5.616;2023-12-04T10:56:04;13.90;;;4.65;;
64543;SDS011;50936;51.660;5.616;2023-12-04T10:58:52;13.18;;;4.72;;
64543;SDS011;50936;51.660;5.616;2023-12-04T11:01:44;12.68;;;4.40;;
64543;SDS011;50936;51.660;5.616;2023-12-04T11:04:35;11.05;;;4.97;;
64543;SDS011;50936;51.660;5.616;2023-12-04T11:07:25;12.85;;;4.40;;
64543;SDS011;50936;51.660;5.616;2023-12-04T11:10:14;13.85;;;4.43;;
64543;SDS011;50936;51.660;5.616;2023-12-04T11:13:06;12.63;;;4.70;;
64543;SDS011;50936;51.660;5.616;2023-12-04T11:16:07;11.50;;;4.47;;
64543;SDS011;50936;51.660;5.616;2023-12-04T11:22:08;11.85;;;4.72;;
64543;SDS011;50936;51.660;5.616;2023-12-04T11:24:58;10.02;;;4.47;;
64543;SDS011;50936;51.660;5.616;2023-12-04T11:27:48;11.98;;;4.53;;
64543;SDS011;50936;51.660;5.616;2023-12-04T11:30:36;11.57;;;4.43;;
64543;SDS011;50936;51.660;5.616;2023-12-04T11:33:24;11.45;;;4.40;;
64543;SDS011;50936;51.660;5.616;2023-12-04T11:36:12;14.02;;;5.28;;
64543;SDS011;50936;51.660;5.616;2023-12-04T11:39:01;35.63;;;12.80;;
64543;SDS011;50936;51.660;5.616;2023-12-04T11:41:50;32.15;;;13.77;;
64543;SDS011;50936;51.660;5.616;2023-12-04T11:44:37;31.92;;;14.60;;
64543;SDS011;50936;51.660;5.616;2023-12-04T11:47:28;36.30;;;13.95;;
64543;SDS011;50936;51.660;5.616;2023-12-04T11:50:16;33.55;;;14.70;;
64543;SDS011;50936;51.660;5.616;2023-12-04T11:53:05;39.58;;;14.10;;
64543;SDS011;50936;51.660;5.616;2023-12-04T11:55:55;33.42;;;13.07;;
64543;SDS011;50936;51.660;5.616;2023-12-04T11:58:45;33.22;;;13.25;;
64543;SDS011;50936;51.660;5.616;2023-12-04T12:01:35;37.30;;;12.57;;
64543;SDS011;50936;51.660;5.616;2023-12-04T12:04:25;28.90;;;12.02;;
64543;SDS011;50936;51.660;5.616;2023-12-04T12:07:17;31.88;;;13.20;;
64543;SDS011;50936;51.660;5.616;2023-12-04T12:10:04;30.45;;;11.20;;
64543;SDS011;50936;51.660;5.616;2023-12-04T12:12:52;26.73;;;11.07;;
64543;SDS011;50936;51.660;5.616;2023-12-04T12:15:39;22.27;;;10.48;;
64543;SDS011;50936;51.660;5.616;2023-12-04T12:18:27;24.80;;;11.10;;
64543;SDS011;50936;51.660;5.616;2023-12-04T12:21:15;27.00;;;10.48;;
64543;SDS011;50936;51.660;5.616;2023-12-04T12:24:05;22.40;;;10.10;;
64543;SDS011;50936;51.660;5.616;2023-12-04T12:26:53;24.40;;;9.48;;
64543;SDS011;50936;51.660;5.616;2023-12-04T12:29:42;22.30;;;9.30;;
64543;SDS011;50936;51.660;5.616;2023-12-04T12:32:36;22.48;;;9.05;;
64543;SDS011;50936;51.660;5.616;2023-12-04T12:35:23;21.00;;;8.98;;
64543;SDS011;50936;51.660;5.616;2023-12-04T12:38:12;20.88;;;8.73;;
64543;SDS011;50936;51.660;5.616;2023-12-04T12:40:59;20.73;;;8.68;;
64543;SDS011;50936;51.660;5.616;2023-12-04T12:43:46;19.75;;;8.50;;
64543;SDS011;50936;51.660;5.616;2023-12-04T12:46:39;18.90;;;8.57;;
64543;SDS011;50936;51.660;5.616;2023-12-04T12:49:27;19.85;;;7.50;;
64543;SDS011;50936;51.660;5.616;2023-12-04T12:52:25;18.70;;;8.25;;
64543;SDS011;50936;51.660;5.616;2023-12-04T12:55:22;20.27;;;8.25;;
64543;SDS011;50936;51.660;5.616;2023-12-04T12:58:14;15.65;;;6.97;;
64543;SDS011;50936;51.660;5.616;2023-12-04T13:01:02;18.30;;;8.13;;
64543;SDS011;50936;51.660;5.616;2023-12-04T13:03:49;18.23;;;6.90;;
64543;SDS011;50936;51.660;5.616;2023-12-04T13:06:37;13.90;;;6.80;;
64543;SDS011;50936;51.660;5.616;2023-12-04T13:09:25;15.15;;;6.70;;
64543;SDS011;50936;51.660;5.616;2023-12-04T13:12:12;15.63;;;6.63;;
64543;SDS011;50936;51.660;5.616;2023-12-04T13:15:01;14.10;;;6.28;;
64543;SDS011;50936;51.660;5.616;2023-12-04T13:17:48;14.43;;;5.93;;
64543;SDS011;50936;51.660;5.616;2023-12-04T13:20:35;13.05;;;6.28;;
64543;SDS011;50936;51.660;5.616;2023-12-04T13:23:23;14.23;;;6.20;;
64543;SDS011;50936;51.660;5.616;2023-12-04T13:26:11;12.98;;;5.90;;
64543;SDS011;50936;51.660;5.616;2023-12-04T13:28:58;12.80;;;5.93;;
64543;SDS011;50936;51.660;5.616;2023-12-04T13:31:45;13.57;;;6.00;;
64543;SDS011;50936;51.660;5.616;2023-12-04T13:34:37;14.23;;;5.88;;
64543;SDS011;50936;51.660;5.616;2023-12-04T13:37:24;12.45;;;5.82;;
64543;SDS011;50936;51.660;5.616;2023-12-04T13:40:14;12.23;;;5.25;;
64543;SDS011;50936;51.660;5.616;2023-12-04T13:43:03;12.05;;;5.50;;
64543;SDS011;50936;51.660;5.616;2023-12-04T13:46:09;15.15;;;5.95;;
64543;SDS011;50936;51.660;5.616;2023-12-04T13:48:57;11.05;;;5.10;;
64543;SDS011;50936;51.660;5.616;2023-12-04T13:51:45;13.02;;;5.53;;
64543;SDS011;50936;51.660;5.616;2023-12-04T13:54:36;10.77;;;4.90;;
64543;SDS011;50936;51.660;5.616;2023-12-04T13:57:34;12.38;;;5.00;;
64543;SDS011;50936;51.660;5.616;2023-12-04T14:00:30;9.88;;;4.93;;
64543;SDS011;50936;51.660;5.616;2023-12-04T14:03:18;10.15;;;4.80;;
64543;SDS011;50936;51.660;5.616;2023-12-04T14:06:06;9.57;;;4.28;;
64543;SDS011;50936;51.660;5.616;2023-12-04T14:08:55;12.48;;;4.80;;
64543;SDS011;50936;51.660;5.616;2023-12-04T14:11:45;12.00;;;4.50;;
64543;SDS011;50936;51.660;5.616;2023-12-04T14:14:32;9.95;;;5.10;;
64543;SDS011;50936;51.660;5.616;2023-12-04T14:17:24;9.35;;;4.78;;
64543;SDS011;50936;51.660;5.616;2023-12-04T14:20:11;10.05;;;5.10;;
64543;SDS011;50936;51.660;5.616;2023-12-04T14:23:02;9.57;;;4.45;;
64543;SDS011;50936;51.660;5.616;2023-12-04T14:25:49;7.97;;;4.13;;
64543;SDS011;50936;51.660;5.616;2023-12-04T14:28:36;8.80;;;4.22;;
64543;SDS011;50936;51.660;5.616;2023-12-04T14:31:29;8.00;;;4.65;;
64543;SDS011;50936;51.660;5.616;2023-12-04T14:34:16;11.32;;;5.03;;
64543;SDS011;50936;51.660;5.616;2023-12-04T14:37:04;13.27;;;4.95;;
64543;SDS011;50936;51.660;5.616;2023-12-04T14:39:51;10.82;;;4.75;;
64543;SDS011;50936;51.660;5.616;2023-12-04T14:42:39;7.63;;;4.45;;
64543;SDS011;50936;51.660;5.616;2023-12-04T14:45:27;7.63;;;3.70;;
64543;SDS011;50936;51.660;5.616;2023-12-04T14:48:15;9.35;;;4.25;;
64543;SDS011;50936;51.660;5.616;2023-12-04T14:51:02;7.88;;;4.00;;
64543;SDS011;50936;51.660;5.616;2023-12-04T14:53:51;8.05;;;3.90;;
64543;SDS011;50936;51.660;5.616;2023-12-04T14:56:57;7.72;;;3.80;;
64543;SDS011;50936;51.660;5.616;2023-12-04T15:00:03;7.97;;;4.00;;
64543;SDS011;50936;51.660;5.616;2023-12-04T15:03:00;8.13;;;3.90;;
64543;SDS011;50936;51.660;5.616;2023-12-04T15:06:08;8.05;;;3.72;;
64543;SDS011;50936;51.660;5.616;2023-12-04T15:08:58;6.75;;;3.58;;
64543;SDS011;50936;51.660;5.616;2023-12-04T15:12:04;7.65;;;3.60;;
64543;SDS011;50936;51.660;5.616;2023-12-04T15:15:10;9.10;;;4.07;;
64543;SDS011;50936;51.660;5.616;2023-12-04T15:17:57;7.28;;;3.65;;
64543;SDS011;50936;51.660;5.616;2023-12-04T15:21:05;6.60;;;3.65;;
64543;SDS011;50936;51.660;5.616;2023-12-04T15:23:53;7.90;;;3.40;;
64543;SDS011;50936;51.660;5.616;2023-12-04T15:26:40;9.80;;;3.45;;
64543;SDS011;50936;51.660;5.616;2023-12-04T15:29:28;9.25;;;3.55;;
64543;SDS011;50936;51.660;5.616;2023-12-04T15:32:17;9.18;;;3.60;;
64543;SDS011;50936;51.660;5.616;2023-12-04T15:35:05;8.57;;;3.70;;
64543;SDS011;50936;51.660;5.616;2023-12-04T15:37:59;7.13;;;3.38;;
64543;SDS011;50936;51.660;5.616;2023-12-04T15:40:46;9.38;;;3.55;;
64543;SDS011;50936;51.660;5.616;2023-12-04T15:43:34;6.25;;;3.03;;
64543;SDS011;50936;51.660;5.616;2023-12-04T15:46:21;8.32;;;3.70;;
64543;SDS011;50936;51.660;5.616;2023-12-04T15:49:10;6.70;;;3.53;;
64543;SDS011;50936;51.660;5.616;2023-12-04T15:51:57;7.93;;;3.47;;
64543;SDS011;50936;51.660;5.616;2023-12-04T15:54:45;7.30;;;3.15;;
64543;SDS011;50936;51.660;5.616;2023-12-04T15:57:33;10.02;;;3.13;;
64543;SDS011;50936;51.660;5.616;2023-12-04T16:00:22;6.60;;;3.20;;
64543;SDS011;50936;51.660;5.616;2023-12-04T16:03:12;8.15;;;3.45;;
64543;SDS011;50936;51.660;5.616;2023-12-04T16:06:00;7.50;;;3.25;;
64543;SDS011;50936;51.660;5.616;2023-12-04T16:08:47;6.38;;;3.08;;
64543;SDS011;50936;51.660;5.616;2023-12-04T16:11:34;7.43;;;3.65;;
64543;SDS011;50936;51.660;5.616;2023-12-04T16:14:22;8.55;;;3.15;;
64543;SDS011;50936;51.660;5.616;2023-12-04T16:17:09;7.15;;;3.30;;
64543;SDS011;50936;51.660;5.616;2023-12-04T16:19:56;6.43;;;3.15;;
64543;SDS011;50936;51.660;5.616;2023-12-04T16:22:46;7.90;;;3.35;;
64543;SDS011;50936;51.660;5.616;2023-12-04T16:25:34;5.95;;;3.50;;
64543;SDS011;50936;51.660;5.616;2023-12-04T16:28:22;6.25;;;2.92;;
64543;SDS011;50936;51.660;5.616;2023-12-04T16:31:09;7.68;;;3.35;;
64543;SDS011;50936;51.660;5.616;2023-12-04T16:33:56;7.20;;;3.00;;
64543;SDS011;50936;51.660;5.616;2023-12-04T16:36:44;6.60;;;3.13;;
64543;SDS011;50936;51.660;5.616;2023-12-04T16:39:32;7.15;;;3.28;;
64543;SDS011;50936;51.660;5.616;2023-12-04T16:42:19;6.82;;;3.17;;
64543;SDS011;50936;51.660;5.616;2023-12-04T16:45:07;7.75;;;2.85;;
64543;SDS011;50936;51.660;5.616;2023-12-04T16:47:55;7.30;;;3.00;;
64543;SDS011;50936;51.660;5.616;2023-12-04T16:50:42;6.15;;;3.20;;
64543;SDS011;50936;51.660;5.616;2023-12-04T16:53:30;5.88;;;3.17;;
64543;SDS011;50936;51.660;5.616;2023-12-04T16:56:18;7.68;;;3.33;;
64543;SDS011;50936;51.660;5.616;2023-12-04T16:59:05;5.75;;;3.40;;
64543;SDS011;50936;51.660;5.616;2023-12-04T17:01:53;6.20;;;3.00;;
64543;SDS011;50936;51.660;5.616;2023-12-04T17:04:40;6.78;;;2.85;;
64543;SDS011;50936;51.660;5.616;2023-12-04T17:07:28;5.60;;;3.17;;